Time;durP1;ratioP1;P1;durP2;ratioP2;P2;SDS_P1;SDS_P2;PMS_P1;PMS_P2;Temp;Humidity;BMP_temperature;BMP_pressure;BME280_temperature;BME280_humidity;BME280_pressure;Samples;Min_cycle;Max_cycle;Signal;HPM_P1;HPM_P2
2023/05/26 00:00:19;;;;;;;40.55;35.88;;;;;;;;;;6284865;22;20011;-86
2023/05/26 00:02:46;;;;;;;35.40;23.95;;;;;;;;;;6257344;22;20026;-85
2023/05/26 00:05:16;;;;;;;30.13;13.27;;;;;;;;;;6256381;22;20046;-84
2023/05/26 00:07:42;;;;;;;35.20;20.85;;;;;;;;;;6281983;22;20015;-84
2023/05/26 00:10:09;;;;;;;37.95;21.75;;;;;;;;;;6280373;22;20500;-85
2023/05/26 00:12:35;;;;;;;32.55;24.33;;;;;;;;;;6254154;22;20062;-85
2023/05/26 00:15:01;;;;;;;32.45;18.25;;;;;;;;;;6284172;22;20035;-85
2023/05/26 00:17:28;;;;;;;40.20;21.35;;;;;;;;;;6283085;22;20030;-85
2023/05/26 00:19:54;;;;;;;34.30;18.60;;;;;;;;;;6257233;22;20031;-85
2023/05/26 00:22:21;;;;;;;33.13;20.90;;;;;;;;;;6284274;22;20016;-85
2023/05/26 00:24:47;;;;;;;38.97;20.92;;;;;;;;;;6284021;22;20053;-85
2023/05/26 00:27:13;;;;;;;36.20;26.27;;;;;;;;;;6283765;22;20059;-85
2023/05/26 00:29:39;;;;;;;43.25;25.45;;;;;;;;;;6258496;22;20110;-85
2023/05/26 00:32:06;;;;;;;34.40;16.15;;;;;;;;;;6286389;22;20022;-83
2023/05/26 00:34:35;;;;;;;40.40;29.48;;;;;;;;;;6286147;22;20008;-85
2023/05/26 00:37:01;;;;;;;39.22;27.77;;;;;;;;;;6285797;22;20015;-85
2023/05/26 00:39:28;;;;;;;37.03;10.45;;;;;;;;;;6286349;22;20012;-85
2023/05/26 00:41:54;;;;;;;42.40;24.38;;;;;;;;;;6284061;22;20023;-83
2023/05/26 00:44:21;;;;;;;35.65;24.08;;;;;;;;;;6284103;22;20090;-85
2023/05/26 00:46:47;;;;;;;39.63;25.08;;;;;;;;;;6284149;22;20019;-84
2023/05/26 00:49:13;;;;;;;43.83;23.55;;;;;;;;;;6284177;22;20020;-85
2023/05/26 00:51:39;;;;;;;40.33;25.60;;;;;;;;;;6285001;22;20016;-85
2023/05/26 00:54:06;;;;;;;32.17;18.42;;;;;;;;;;6285749;22;20410;-85
2023/05/26 00:56:35;;;;;;;39.95;22.38;;;;;;;;;;6287318;22;20011;-84
2023/05/26 00:59:02;;;;;;;42.13;20.30;;;;;;;;;;6287583;22;20012;-83
2023/05/26 01:01:29;;;;;;;39.72;14.85;;;;;;;;;;6286111;22;20011;-85
2023/05/26 01:03:56;;;;;;;37.88;22.17;;;;;;;;;;6261152;22;20015;-84
2023/05/26 01:06:22;;;;;;;31.13;17.10;;;;;;;;;;6288076;22;20015;-85
2023/05/26 01:08:48;;;;;;;36.92;15.05;;;;;;;;;;6287098;22;20008;-85
2023/05/26 01:11:21;;;;;;;36.28;13.85;;;;;;;;;;6258362;22;20019;-85
2023/05/26 01:13:49;;;;;;;39.40;14.40;;;;;;;;;;6285698;22;20423;-85
2023/05/26 01:16:17;;;;;;;37.22;15.88;;;;;;;;;;6286138;22;20015;-85
2023/05/26 01:18:43;;;;;;;44.47;24.48;;;;;;;;;;6283914;22;20020;-85
2023/05/26 01:21:12;;;;;;;36.65;22.60;;;;;;;;;;6259501;22;20041;-85
2023/05/26 01:23:46;;;;;;;38.53;16.90;;;;;;;;;;6284783;22;20016;-85
2023/05/26 01:26:25;;;;;;;34.35;17.00;;;;;;;;;;6284583;22;20023;-85
2023/05/26 01:28:53;;;;;;;43.00;19.77;;;;;;;;;;6281158;22;20095;-84
2023/05/26 01:31:19;;;;;;;37.15;21.80;;;;;;;;;;6282879;22;20011;-84
2023/05/26 01:33:45;;;;;;;50.53;13.15;;;;;;;;;;6255016;22;20011;-85
2023/05/26 01:36:11;;;;;;;29.15;13.85;;;;;;;;;;6284333;22;20018;-86
2023/05/26 01:38:39;;;;;;;41.05;12.05;;;;;;;;;;6282042;22;20023;-84
2023/05/26 01:41:12;;;;;;;33.95;12.75;;;;;;;;;;6283901;22;20023;-84
2023/05/26 01:43:38;;;;;;;;;;;;;;;;;;6281885;22;20110;-84
2023/05/26 01:46:10;;;;;;;41.75;17.17;;;;;;;;;;6255220;22;19915;-85
2023/05/26 01:48:39;;;;;;;38.35;18.65;;;;;;;;;;6280992;22;20350;-85
2023/05/26 01:51:06;;;;;;;38.05;14.02;;;;;;;;;;6282352;22;20008;-84
2023/05/26 01:53:33;;;;;;;35.22;16.88;;;;;;;;;;6255647;22;20043;-84
2023/05/26 01:55:59;;;;;;;34.03;12.95;;;;;;;;;;6256157;22;20016;-84
2023/05/26 01:58:26;;;;;;;29.58;12.18;;;;;;;;;;6282841;22;20016;-84
2023/05/26 02:00:52;;;;;;;32.42;15.07;;;;;;;;;;6282604;22;20020;-84
2023/05/26 02:03:20;;;;;;;35.35;13.77;;;;;;;;;;6282357;22;20668;-85
2023/05/26 02:05:46;;;;;;;28.55;13.23;;;;;;;;;;6283202;22;20047;-85
2023/05/26 02:08:12;;;;;;;31.42;11.38;;;;;;;;;;6280809;22;20011;-84
2023/05/26 02:10:39;;;;;;;33.20;11.15;;;;;;;;;;6256487;22;20022;-83
2023/05/26 02:13:05;;;;;;;28.35;10.10;;;;;;;;;;6285573;22;20012;-84
2023/05/26 02:15:31;;;;;;;32.92;10.75;;;;;;;;;;6257720;22;20018;-85
2023/05/26 02:17:58;;;;;;;33.80;10.25;;;;;;;;;;6280327;22;20107;-84
2023/05/26 02:20:24;;;;;;;34.63;9.95;;;;;;;;;;6254751;22;20019;-83
2023/05/26 02:22:51;;;;;;;28.67;9.57;;;;;;;;;;6280202;22;20055;-84
2023/05/26 02:25:17;;;;;;;29.38;9.73;;;;;;;;;;6255548;22;20035;-85
2023/05/26 02:27:43;;;;;;;31.15;10.18;;;;;;;;;;6255666;22;20015;-84
2023/05/26 02:30:09;;;;;;;34.53;10.23;;;;;;;;;;6283175;22;20039;-84
2023/05/26 02:32:36;;;;;;;26.58;9.98;;;;;;;;;;6283253;22;20008;-84
2023/05/26 02:35:03;;;;;;;35.28;9.00;;;;;;;;;;6281893;22;20015;-84
2023/05/26 02:37:29;;;;;;;29.73;9.45;;;;;;;;;;6254986;22;20016;-85
2023/05/26 02:39:56;;;;;;;36.47;9.93;;;;;;;;;;6256339;22;20022;-85
2023/05/26 02:42:22;;;;;;;25.55;9.23;;;;;;;;;;6283116;22;20020;-83
2023/05/26 02:44:48;;;;;;;32.55;9.60;;;;;;;;;;6255444;22;20015;-84
2023/05/26 02:47:14;;;;;;;33.88;9.60;;;;;;;;;;6255811;22;20095;-84
2023/05/26 02:49:42;;;;;;;37.28;9.05;;;;;;;;;;6281325;22;20065;-85
2023/05/26 02:52:08;;;;;;;33.17;8.82;;;;;;;;;;6280725;22;20022;-84
2023/05/26 02:54:34;;;;;;;25.58;7.22;;;;;;;;;;6283341;22;20498;-84
2023/05/26 02:57:00;;;;;;;29.30;8.88;;;;;;;;;;6284661;22;20016;-83
2023/05/26 02:59:26;;;;;;;35.15;8.63;;;;;;;;;;6282870;22;20022;-84
2023/05/26 03:01:52;;;;;;;26.58;9.13;;;;;;;;;;6280507;22;20016;-85
2023/05/26 03:04:18;;;;;;;21.77;7.90;;;;;;;;;;6255408;22;20011;-84
2023/05/26 03:06:44;;;;;;;22.83;8.00;;;;;;;;;;6279657;22;20110;-85
2023/05/26 03:09:10;;;;;;;35.53;9.77;;;;;;;;;;6256456;22;20098;-85
2023/05/26 03:11:36;;;;;;;26.98;9.40;;;;;;;;;;6256571;22;20015;-85
2023/05/26 03:14:02;;;;;;;28.67;8.77;;;;;;;;;;6280452;22;20022;-84
2023/05/26 03:16:28;;;;;;;28.77;8.00;;;;;;;;;;6279986;22;20018;-85
2023/05/26 03:18:55;;;;;;;31.17;11.00;;;;;;;;;;6280265;22;20015;-84
2023/05/26 03:21:21;;;;;;;24.48;7.82;;;;;;;;;;6255409;22;20018;-84
2023/05/26 03:23:47;;;;;;;31.55;8.13;;;;;;;;;;6281762;22;20121;-84
2023/05/26 03:26:13;;;;;;;32.33;9.52;;;;;;;;;;6255501;22;20015;-82
2023/05/26 03:28:39;;;;;;;30.90;10.15;;;;;;;;;;6280787;22;20439;-84
2023/05/26 03:31:05;;;;;;;33.78;10.65;;;;;;;;;;6280858;22;20094;-84
2023/05/26 03:33:31;;;;;;;33.72;9.55;;;;;;;;;;6280234;22;20046;-83
2023/05/26 03:36:00;;;;;;;31.67;10.32;;;;;;;;;;6280034;22;20011;-84
2023/05/26 03:38:26;;;;;;;31.45;10.10;;;;;;;;;;6254944;22;20427;-84
2023/05/26 03:40:52;;;;;;;25.60;7.80;;;;;;;;;;6280061;22;20324;-85
2023/05/26 03:43:18;;;;;;;30.55;8.50;;;;;;;;;;6254330;22;20008;-84
2023/05/26 03:45:44;;;;;;;28.63;8.68;;;;;;;;;;6254323;22;20074;-84
2023/05/26 03:48:13;;;;;;;31.65;10.43;;;;;;;;;;6280821;22;20016;-84
2023/05/26 03:50:41;;;;;;;33.60;9.95;;;;;;;;;;6279914;22;20012;-84
2023/05/26 03:53:08;;;;;;;32.00;9.40;;;;;;;;;;6256278;22;20019;-86
2023/05/26 03:55:34;;;;;;;27.70;9.20;;;;;;;;;;6252937;22;20022;-84
2023/05/26 03:58:00;;;;;;;32.15;8.50;;;;;;;;;;6254467;22;20044;-83
2023/05/26 04:00:30;;;;;;;27.42;8.05;;;;;;;;;;6281272;22;20081;-83
2023/05/26 04:02:57;;;;;;;25.10;9.13;;;;;;;;;;6281280;22;20018;-85
2023/05/26 04:05:23;;;;;;;28.08;10.13;;;;;;;;;;6281528;22;20011;-84
2023/05/26 04:07:49;;;;;;;34.30;9.85;;;;;;;;;;6255608;22;20069;-85
2023/05/26 04:10:15;;;;;;;30.98;13.02;;;;;;;;;;6281638;22;20339;-84
2023/05/26 04:12:41;;;;;;;36.13;10.60;;;;;;;;;;6280104;22;20149;-82
2023/05/26 04:15:09;;;;;;;28.02;11.43;;;;;;;;;;6253335;22;20012;-83
2023/05/26 04:17:35;;;;;;;32.15;10.82;;;;;;;;;;6278179;22;20016;-84
2023/05/26 04:20:01;;;;;;;36.78;9.13;;;;;;;;;;6275336;22;20021;-84
2023/05/26 04:22:27;;;;;;;32.17;10.15;;;;;;;;;;6253537;22;20019;-83
2023/05/26 04:24:53;;;;;;;22.00;9.40;;;;;;;;;;6254692;22;20022;-84
2023/05/26 04:27:19;;;;;;;28.13;9.27;;;;;;;;;;6253515;22;20018;-84
2023/05/26 04:29:45;;;;;;;33.22;11.57;;;;;;;;;;6277874;22;20087;-84
2023/05/26 04:32:11;;;;;;;29.27;10.93;;;;;;;;;;6253145;22;20019;-84
2023/05/26 04:34:38;;;;;;;31.48;10.77;;;;;;;;;;6253244;22;20330;-83
2023/05/26 04:37:04;;;;;;;28.00;10.48;;;;;;;;;;6251677;22;20019;-84
2023/05/26 04:39:33;;;;;;;31.70;10.20;;;;;;;;;;6277157;22;20316;-85
2023/05/26 04:42:02;;;;;;;30.60;11.10;;;;;;;;;;6254187;22;20020;-84
2023/05/26 04:44:29;;;;;;;27.88;11.23;;;;;;;;;;6278732;22;20015;-84
2023/05/26 04:46:55;;;;;;;31.15;12.55;;;;;;;;;;6277693;22;20090;-84
2023/05/26 04:49:23;;;;;;;31.20;11.73;;;;;;;;;;6253239;22;20065;-84
2023/05/26 04:51:55;;;;;;;35.65;13.35;;;;;;;;;;6251134;22;20015;-83
2023/05/26 04:54:21;;;;;;;31.60;11.85;;;;;;;;;;6252336;22;20023;-84
2023/05/26 04:56:48;;;;;;;31.67;11.65;;;;;;;;;;6277612;22;20011;-83
2023/05/26 04:59:17;;;;;;;36.85;11.07;;;;;;;;;;6278777;22;20016;-84
2023/05/26 05:01:47;;;;;;;31.75;10.75;;;;;;;;;;6257639;22;20481;-84
2023/05/26 05:04:13;;;;;;;23.23;9.25;;;;;;;;;;6280080;22;20012;-83
2023/05/26 05:06:39;;;;;;;32.00;10.40;;;;;;;;;;6278637;22;20019;-85
2023/05/26 05:09:05;;;;;;;30.15;10.80;;;;;;;;;;6277630;22;20069;-84
2023/05/26 05:11:31;;;;;;;37.15;11.63;;;;;;;;;;6278477;22;20094;-85
2023/05/26 05:13:57;;;;;;;33.15;11.48;;;;;;;;;;6279806;22;20015;-85
2023/05/26 05:16:23;;;;;;;30.42;12.75;;;;;;;;;;6279652;22;20015;-84
2023/05/26 05:18:49;;;;;;;31.25;11.07;;;;;;;;;;6280276;22;20015;-85
2023/05/26 05:21:16;;;;;;;34.95;10.93;;;;;;;;;;6277004;22;20016;-84
2023/05/26 05:23:42;;;;;;;33.28;12.00;;;;;;;;;;6278361;22;20073;-80
2023/05/26 05:26:08;;;;;;;34.92;9.55;;;;;;;;;;6272966;22;20107;-79
2023/05/26 05:28:34;;;;;;;27.02;8.25;;;;;;;;;;6273773;22;20443;-82
2023/05/26 05:31:00;;;;;;;38.90;9.23;;;;;;;;;;6247534;22;20011;-83
2023/05/26 05:33:27;;;;;;;27.02;8.20;;;;;;;;;;6247410;22;20092;-84
2023/05/26 05:35:53;;;;;;;36.78;10.27;;;;;;;;;;6271869;22;20454;-83
2023/05/26 05:38:19;;;;;;;36.42;12.77;;;;;;;;;;6246366;22;20091;-86
2023/05/26 05:40:45;;;;;;;30.35;11.43;;;;;;;;;;6246805;22;20031;-83
2023/05/26 05:43:11;;;;;;;35.38;9.48;;;;;;;;;;6274294;22;20073;-84
2023/05/26 05:45:37;;;;;;;34.65;11.50;;;;;;;;;;6246624;22;20028;-84
2023/05/26 05:48:03;;;;;;;32.38;11.40;;;;;;;;;;6246291;22;20386;-84
2023/05/26 05:50:30;;;;;;;30.65;6.93;;;;;;;;;;6246499;22;20008;-85
2023/05/26 05:52:56;;;;;;;30.42;8.48;;;;;;;;;;6296943;22;20111;-85
2023/05/26 05:55:22;;;;;;;30.02;7.03;;;;;;;;;;6251394;22;20494;-84
2023/05/26 05:57:48;;;;;;;28.70;6.78;;;;;;;;;;6277056;22;20011;-84
2023/05/26 06:00:15;;;;;;;32.40;7.35;;;;;;;;;;6304999;22;20323;-85
2023/05/26 06:02:41;;;;;;;33.25;7.57;;;;;;;;;;6251231;22;20015;-84
2023/05/26 06:05:07;;;;;;;33.25;7.53;;;;;;;;;;6304876;22;20023;-86
2023/05/26 06:07:33;;;;;;;28.10;7.88;;;;;;;;;;6277850;22;20015;-86
2023/05/26 06:09:59;;;;;;;25.98;7.25;;;;;;;;;;6276873;22;20022;-85
2023/05/26 06:12:25;;;;;;;33.50;8.07;;;;;;;;;;6274482;22;20007;-87
2023/05/26 06:14:51;;;;;;;26.55;7.05;;;;;;;;;;6250760;22;20007;-84
2023/05/26 06:17:17;;;;;;;27.67;7.45;;;;;;;;;;6276168;22;20063;-88
2023/05/26 06:19:43;;;;;;;23.58;6.53;;;;;;;;;;6276665;22;20126;-86
2023/05/26 06:22:09;;;;;;;26.73;7.60;;;;;;;;;;6274076;22;20015;-84
2023/05/26 06:24:35;;;;;;;26.83;7.47;;;;;;;;;;6276299;22;20046;-85
2023/05/26 06:27:01;;;;;;;21.80;7.07;;;;;;;;;;6251130;22;20540;-84
2023/05/26 06:29:27;;;;;;;27.02;11.68;;;;;;;;;;6303183;22;20481;-85
2023/05/26 06:31:54;;;;;;;36.22;27.30;;;;;;;;;;6304487;22;20086;-85
2023/05/26 06:34:20;;;;;;;67.88;62.72;;;;;;;;;;6251123;22;20468;-84
2023/05/26 06:36:46;;;;;;;44.42;39.95;;;;;;;;;;6276262;22;20098;-83
2023/05/26 06:39:12;;;;;;;23.42;12.45;;;;;;;;;;6303511;22;20072;-87
2023/05/26 06:41:38;;;;;;;21.65;8.85;;;;;;;;;;6251146;22;20348;-83
2023/05/26 06:44:04;;;;;;;20.60;7.32;;;;;;;;;;6276393;22;20011;-83
2023/05/26 06:46:30;;;;;;;19.90;7.28;;;;;;;;;;6304514;22;20090;-86
2023/05/26 06:48:59;;;;;;;23.63;7.40;;;;;;;;;;6275817;22;20015;-85
2023/05/26 06:51:25;;;;;;;21.05;9.95;;;;;;;;;;6249742;22;20019;-84
2023/05/26 06:53:51;;;;;;;22.02;13.52;;;;;;;;;;6304358;22;20123;-86
2023/05/26 06:56:17;;;;;;;32.10;26.65;;;;;;;;;;6250770;22;20015;-86
2023/05/26 06:58:43;;;;;;;36.10;25.85;;;;;;;;;;6250624;22;20291;-85
2023/05/26 07:01:09;;;;;;;99.82;92.72;;;;;;;;;;6250715;22;20015;-85
2023/05/26 07:03:35;;;;;;;96.80;89.57;;;;;;;;;;6250414;22;20114;-83
2023/05/26 07:06:02;;;;;;;51.78;47.63;;;;;;;;;;6276005;22;20041;-84
2023/05/26 07:08:28;;;;;;;39.35;35.45;;;;;;;;;;6275949;22;20042;-84
2023/05/26 07:10:55;;;;;;;34.50;20.02;;;;;;;;;;6250390;22;20022;-84
2023/05/26 07:13:20;;;;;;;23.65;17.45;;;;;;;;;;6276678;22;20011;-84
2023/05/26 07:15:46;;;;;;;36.88;32.97;;;;;;;;;;6250510;22;20072;-83
2023/05/26 07:18:12;;;;;;;52.00;47.40;;;;;;;;;;6275915;22;20011;-84
2023/05/26 07:20:38;;;;;;;86.72;80.57;;;;;;;;;;6275470;22;20391;-85
2023/05/26 07:23:04;;;;;;;240.68;225.07;;;;;;;;;;6303032;22;20090;-83
2023/05/26 07:25:31;;;;;;;307.38;288.45;;;;;;;;;;6303592;22;20045;-83
2023/05/26 07:27:57;;;;;;;412.80;385.58;;;;;;;;;;6275114;22;20014;-83
2023/05/26 07:30:23;;;;;;;491.92;459.02;;;;;;;;;;6303005;22;20593;-84
2023/05/26 07:32:49;;;;;;;534.22;496.95;;;;;;;;;;6304208;22;20061;-84
2023/05/26 07:35:15;;;;;;;663.47;615.80;;;;;;;;;;6249658;22;20046;-82
2023/05/26 07:37:41;;;;;;;700.13;647.47;;;;;;;;;;6275868;22;20023;-82
2023/05/26 07:40:07;;;;;;;640.08;593.55;;;;;;;;;;6275604;22;20020;-85
2023/05/26 07:42:33;;;;;;;747.72;690.38;;;;;;;;;;6275850;22;20495;-85
2023/05/26 07:45:00;;;;;;;744.55;687.53;;;;;;;;;;6276265;22;20022;-84
2023/05/26 07:47:31;;;;;;;743.35;686.20;;;;;;;;;;6249631;22;20066;-84
2023/05/26 07:49:57;;;;;;;711.67;658.28;;;;;;;;;;6275554;22;20110;-85
2023/05/26 07:52:23;;;;;;;721.10;666.85;;;;;;;;;;6303678;22;20019;-83
2023/05/26 07:54:49;;;;;;;702.25;650.10;;;;;;;;;;6303629;22;20026;-85
2023/05/26 07:57:15;;;;;;;716.38;662.60;;;;;;;;;;6249492;22;20007;-84
2023/05/26 07:59:41;;;;;;;766.65;707.38;;;;;;;;;;6303670;22;20094;-86
2023/05/26 08:02:07;;;;;;;799.45;736.40;;;;;;;;;;6303127;22;20039;-84
2023/05/26 08:04:33;;;;;;;895.45;820.05;;;;;;;;;;6249981;22;20090;-85
2023/05/26 08:06:59;;;;;;;984.22;893.72;;;;;;;;;;6303681;22;20046;-85
2023/05/26 08:09:25;;;;;;;943.35;856.13;;;;;;;;;;6275101;22;20020;-83
2023/05/26 08:11:51;;;;;;;1059.60;944.13;;;;;;;;;;6250372;22;20064;-83
2023/05/26 08:14:19;;;;;;;1114.75;982.30;;;;;;;;;;6250370;22;20012;-84
2023/05/26 08:16:45;;;;;;;1174.57;993.42;;;;;;;;;;6292521;22;20137;-83
2023/05/26 08:19:11;;;;;;;1161.78;995.63;;;;;;;;;;6275321;22;20015;-83
2023/05/26 08:21:37;;;;;;;1079.50;961.80;;;;;;;;;;6275512;22;20080;-79
2023/05/26 08:24:03;;;;;;;1045.20;936.67;;;;;;;;;;6275972;22;20015;-81
2023/05/26 08:26:29;;;;;;;996.35;898.90;;;;;;;;;;6250176;22;20012;-79
2023/05/26 08:28:55;;;;;;;1033.90;928.63;;;;;;;;;;6275500;22;20064;-79
2023/05/26 08:31:21;;;;;;;1004.25;907.03;;;;;;;;;;6249578;22;20307;-79
2023/05/26 08:33:47;;;;;;;976.88;883.90;;;;;;;;;;6249775;22;20046;-81
2023/05/26 08:36:13;;;;;;;935.42;848.67;;;;;;;;;;6304586;22;20015;-79
2023/05/26 08:38:39;;;;;;;902.10;823.65;;;;;;;;;;6277304;22;20015;-80
2023/05/26 08:41:06;;;;;;;865.17;793.00;;;;;;;;;;6251779;22;20030;-81
2023/05/26 08:43:45;;;;;;;823.88;758.03;;;;;;;;;;6277025;22;20015;-82
2023/05/26 08:46:11;;;;;;;807.65;742.72;;;;;;;;;;6277764;22;20374;-81
2023/05/26 08:48:39;;;;;;;844.63;776.92;;;;;;;;;;6276443;22;20011;-81
2023/05/26 08:51:08;;;;;;;788.30;726.47;;;;;;;;;;6277580;22;20007;-82
2023/05/26 08:53:34;;;;;;;752.53;694.33;;;;;;;;;;6305488;22;20026;-82
2023/05/26 08:56:00;;;;;;;743.63;686.25;;;;;;;;;;6251002;22;20064;-81
2023/05/26 08:58:26;;;;;;;811.70;747.20;;;;;;;;;;6251737;22;20019;-81
2023/05/26 09:00:53;;;;;;;813.40;749.97;;;;;;;;;;6305371;22;20039;-84
2023/05/26 09:03:19;;;;;;;827.88;762.17;;;;;;;;;;6303369;22;20060;-85
2023/05/26 09:05:45;;;;;;;789.25;728.05;;;;;;;;;;6250883;22;20360;-83
2023/05/26 09:08:12;;;;;;;735.35;680.42;;;;;;;;;;6250047;22;20007;-82
2023/05/26 09:10:38;;;;;;;739.50;684.00;;;;;;;;;;6275448;22;20018;-83
2023/05/26 09:13:08;;;;;;;780.83;720.20;;;;;;;;;;6276226;22;20035;-84
2023/05/26 09:15:36;;;;;;;696.53;645.22;;;;;;;;;;6276026;22;20034;-86
2023/05/26 09:18:06;;;;;;;716.38;662.70;;;;;;;;;;6250908;22;20011;-81
2023/05/26 09:20:33;;;;;;;623.00;578.55;;;;;;;;;;6279950;22;20042;-84
2023/05/26 09:22:59;;;;;;;636.33;589.90;;;;;;;;;;6284153;22;20338;-85
2023/05/26 09:25:35;;;;;;;603.60;560.58;;;;;;;;;;6308483;22;20011;-82
2023/05/26 09:28:05;;;;;;;563.63;523.92;;;;;;;;;;6279699;22;20019;-81
2023/05/26 09:30:35;;;;;;;540.53;502.80;;;;;;;;;;6278064;22;20018;-84
2023/05/26 09:33:01;;;;;;;598.78;556.22;;;;;;;;;;6280062;22;20016;-81
2023/05/26 09:35:27;;;;;;;600.35;557.33;;;;;;;;;;6280162;22;20022;-82
2023/05/26 09:37:55;;;;;;;613.45;569.50;;;;;;;;;;6252119;22;20015;-80
2023/05/26 09:40:21;;;;;;;608.03;564.38;;;;;;;;;;6252589;22;20015;-82
2023/05/26 09:42:47;;;;;;;632.70;586.33;;;;;;;;;;6281223;22;20026;-85
2023/05/26 09:45:14;;;;;;;643.03;596.47;;;;;;;;;;6256238;22;20089;-83
2023/05/26 09:47:40;;;;;;;581.58;540.75;;;;;;;;;;6280124;22;20022;-84
2023/05/26 09:50:06;;;;;;;595.28;554.15;;;;;;;;;;6251817;22;20504;-81
2023/05/26 09:52:36;;;;;;;570.75;531.17;;;;;;;;;;6252148;22;20069;-82
2023/05/26 09:55:03;;;;;;;521.67;485.88;;;;;;;;;;6306825;22;20037;-81
2023/05/26 09:57:30;;;;;;;577.92;537.58;;;;;;;;;;6278477;22;20019;-80
2023/05/26 10:00:00;;;;;;;566.70;527.63;;;;;;;;;;6304799;22;20484;-81
2023/05/26 10:02:26;;;;;;;618.92;574.65;;;;;;;;;;6278569;22;20019;-84
2023/05/26 10:04:53;;;;;;;657.83;609.97;;;;;;;;;;6257239;22;20007;-86
2023/05/26 10:07:21;;;;;;;640.75;594.10;;;;;;;;;;6306316;22;20015;-82
2023/05/26 10:09:58;;;;;;;637.90;591.28;;;;;;;;;;6254207;22;20019;-81
2023/05/26 10:12:31;;;;;;;614.45;570.05;;;;;;;;;;6251982;22;20018;-81
2023/05/26 10:14:57;;;;;;;557.30;518.13;;;;;;;;;;6251509;22;20018;-82
2023/05/26 10:17:23;;;;;;;488.65;455.13;;;;;;;;;;6277519;22;20015;-81
2023/05/26 10:19:50;;;;;;;480.58;448.60;;;;;;;;;;6252518;22;20023;-80
2023/05/26 10:22:21;;;;;;;482.50;451.08;;;;;;;;;;6277668;22;20521;-80
2023/05/26 10:24:51;;;;;;;415.35;388.60;;;;;;;;;;6277608;22;20094;-80
2023/05/26 10:27:26;;;;;;;360.13;337.60;;;;;;;;;;6251236;22;20011;-80
2023/05/26 10:30:00;;;;;;;312.52;293.05;;;;;;;;;;6305359;22;20011;-81
2023/05/26 10:32:45;;;;;;;324.55;304.13;;;;;;;;;;6253251;22;20172;-81
2023/05/26 10:35:23;;;;;;;270.63;254.20;;;;;;;;;;6277535;22;20008;-82
2023/05/26 10:37:50;;;;;;;286.10;268.10;;;;;;;;;;6284664;22;20015;-85
2023/05/26 10:40:25;;;;;;;254.23;237.68;;;;;;;;;;6287492;22;20442;-87
2023/05/26 10:42:51;;;;;;;241.00;226.32;;;;;;;;;;6285754;22;20108;-86
2023/05/26 10:45:18;;;;;;;270.67;253.70;;;;;;;;;;6278537;22;20061;-81
2023/05/26 10:47:48;;;;;;;232.40;218.13;;;;;;;;;;6253017;22;20473;-81
2023/05/26 10:50:17;;;;;;;235.50;221.18;;;;;;;;;;6305879;22;20014;-83
2023/05/26 10:52:47;;;;;;;192.68;181.02;;;;;;;;;;6254654;22;20015;-84
2023/05/26 10:55:45;;;;;;;297.48;279.10;;;;;;;;;;6310026;22;20015;-86
2023/05/26 10:58:31;;;;;;;212.13;198.93;;;;;;;;;;6278340;22;20029;-81
2023/05/26 11:01:04;;;;;;;222.10;208.02;;;;;;;;;;6251305;22;20019;-83
2023/05/26 11:03:35;;;;;;;230.80;216.57;;;;;;;;;;6252389;22;20011;-81
2023/05/26 11:06:01;;;;;;;200.20;188.07;;;;;;;;;;6251872;22;20098;-81
2023/05/26 11:08:33;;;;;;;230.95;216.88;;;;;;;;;;6251266;22;20011;-82
2023/05/26 11:11:00;;;;;;;315.38;295.75;;;;;;;;;;6278112;22;20014;-82
2023/05/26 11:13:46;;;;;;;358.60;336.27;;;;;;;;;;6276660;22;20442;-84
2023/05/26 11:16:25;;;;;;;393.42;367.65;;;;;;;;;;6250761;22;20080;-83
2023/05/26 11:18:54;;;;;;;382.42;358.02;;;;;;;;;;6276792;22;20015;-83
2023/05/26 11:21:25;;;;;;;371.92;348.67;;;;;;;;;;6276565;22;20022;-82
2023/05/26 11:23:52;;;;;;;284.02;266.17;;;;;;;;;;6303149;22;20034;-82
2023/05/26 11:26:18;;;;;;;285.20;267.30;;;;;;;;;;6276224;22;20015;-82
2023/05/26 11:28:45;;;;;;;282.80;265.83;;;;;;;;;;6275347;22;20015;-83
2023/05/26 11:31:18;;;;;;;291.70;273.83;;;;;;;;;;6250623;22;20433;-82
2023/05/26 11:33:44;;;;;;;299.85;281.60;;;;;;;;;;6276010;22;20015;-85
2023/05/26 11:36:12;;;;;;;283.13;265.77;;;;;;;;;;6251436;22;20021;-86
2023/05/26 11:38:38;;;;;;;299.05;280.80;;;;;;;;;;6250237;22;20337;-82
2023/05/26 11:41:05;;;;;;;323.73;303.85;;;;;;;;;;6276043;22;20053;-82
2023/05/26 11:43:31;;;;;;;354.90;332.33;;;;;;;;;;6251184;22;20011;-81
2023/05/26 11:46:01;;;;;;;359.10;336.45;;;;;;;;;;6303577;22;20221;-82
2023/05/26 11:48:31;;;;;;;396.90;371.50;;;;;;;;;;6249360;22;20468;-82
2023/05/26 11:50:57;;;;;;;377.80;353.75;;;;;;;;;;6251170;22;20007;-83
2023/05/26 11:53:23;;;;;;;418.02;390.30;;;;;;;;;;6250086;22;20046;-83
2023/05/26 11:56:00;;;;;;;413.52;386.77;;;;;;;;;;6249881;22;20011;-83
2023/05/26 11:58:26;;;;;;;370.98;346.85;;;;;;;;;;6275363;22;20106;-83
2023/05/26 12:00:56;;;;;;;423.42;395.00;;;;;;;;;;6275919;22;20019;-83
2023/05/26 12:03:22;;;;;;;385.73;361.27;;;;;;;;;;6276226;22;20118;-83
2023/05/26 12:05:48;;;;;;;391.35;366.33;;;;;;;;;;6303600;22;20338;-84
2023/05/26 12:08:15;;;;;;;388.75;363.23;;;;;;;;;;6274648;22;20016;-83
2023/05/26 12:10:41;;;;;;;398.92;372.73;;;;;;;;;;6275149;22;20046;-84
2023/05/26 12:13:07;;;;;;;379.25;354.80;;;;;;;;;;6276209;22;20015;-82
2023/05/26 12:15:33;;;;;;;387.13;362.40;;;;;;;;;;6276165;22;20011;-81
2023/05/26 12:18:02;;;;;;;357.38;334.52;;;;;;;;;;6275214;22;20023;-83
2023/05/26 12:20:28;;;;;;;325.90;305.42;;;;;;;;;;6275716;22;20086;-82
2023/05/26 12:23:02;;;;;;;269.63;253.13;;;;;;;;;;6276285;22;20042;-84
2023/05/26 12:25:31;;;;;;;340.13;318.83;;;;;;;;;;6250150;22;20106;-85
2023/05/26 12:27:57;;;;;;;449.50;419.80;;;;;;;;;;6275948;22;20031;-87
2023/05/26 12:30:26;;;;;;;457.83;427.35;;;;;;;;;;6304034;22;20457;-88
2023/05/26 12:32:52;;;;;;;373.30;350.15;;;;;;;;;;6277074;22;20139;-87
2023/05/26 12:35:18;;;;;;;442.75;413.25;;;;;;;;;;6277646;22;20011;-88
2023/05/26 12:37:45;;;;;;;422.65;394.95;;;;;;;;;;6275981;22;20064;-89
2023/05/26 12:40:11;;;;;;;437.42;409.60;;;;;;;;;;6251410;22;20047;-87
2023/05/26 12:42:38;;;;;;;395.55;369.63;;;;;;;;;;6276298;22;20022;-81
2023/05/26 12:45:04;;;;;;;482.85;450.27;;;;;;;;;;6276260;22;20395;-79
2023/05/26 12:47:31;;;;;;;367.58;344.48;;;;;;;;;;6275079;22;20095;-80
2023/05/26 12:49:57;;;;;;;353.30;330.85;;;;;;;;;;6250256;22;20024;-79
2023/05/26 12:52:23;;;;;;;346.70;324.17;;;;;;;;;;6245585;22;20363;-79
2023/05/26 12:54:49;;;;;;;355.55;332.42;;;;;;;;;;6270135;22;20023;-83
2023/05/26 12:57:15;;;;;;;371.63;348.17;;;;;;;;;;6244293;22;20012;-85
2023/05/26 12:59:41;;;;;;;401.63;375.38;;;;;;;;;;6271869;22;20011;-84
2023/05/26 13:02:08;;;;;;;429.73;401.50;;;;;;;;;;6244732;22;20012;-80
2023/05/26 13:04:35;;;;;;;401.35;375.58;;;;;;;;;;6272911;22;20012;-81
2023/05/26 13:07:01;;;;;;;351.45;329.73;;;;;;;;;;6270521;22;20096;-82
2023/05/26 13:09:29;;;;;;;384.88;360.20;;;;;;;;;;6271563;22;20118;-81
2023/05/26 13:11:55;;;;;;;370.48;346.50;;;;;;;;;;6245288;22;20062;-80
2023/05/26 13:14:21;;;;;;;377.55;353.30;;;;;;;;;;6270934;22;20015;-82
2023/05/26 13:16:47;;;;;;;403.83;377.63;;;;;;;;;;6245195;22;20394;-82
2023/05/26 13:19:13;;;;;;;375.23;351.30;;;;;;;;;;6244094;22;20011;-82
2023/05/26 13:21:39;;;;;;;386.13;361.30;;;;;;;;;;6270246;22;20652;-83
2023/05/26 13:24:05;;;;;;;375.02;350.60;;;;;;;;;;6271941;22;20012;-81
2023/05/26 13:26:31;;;;;;;421.67;394.33;;;;;;;;;;6246316;22;20015;-80
2023/05/26 13:28:58;;;;;;;423.80;396.08;;;;;;;;;;6246687;22;20046;-80
2023/05/26 13:31:24;;;;;;;395.02;369.83;;;;;;;;;;6246785;22;20046;-84
2023/05/26 13:33:51;;;;;;;443.88;414.63;;;;;;;;;;6272453;22;20008;-80
2023/05/26 13:36:18;;;;;;;302.58;283.27;;;;;;;;;;6272498;22;20018;-80
2023/05/26 13:38:43;;;;;;;224.90;210.07;;;;;;;;;;6270132;22;20106;-80
2023/05/26 13:41:11;;;;;;;205.30;191.98;;;;;;;;;;6273042;22;20047;-81
2023/05/26 13:43:37;;;;;;;222.65;208.00;;;;;;;;;;6272228;22;20011;-79
2023/05/26 13:46:03;;;;;;;220.85;206.52;;;;;;;;;;6271473;22;20024;-90
2023/05/26 13:48:29;;;;;;;192.38;179.93;;;;;;;;;;6246963;22;20081;-84
2023/05/26 13:50:55;;;;;;;169.02;158.00;;;;;;;;;;6273693;22;20061;-83
2023/05/26 13:53:22;;;;;;;184.15;171.75;;;;;;;;;;6246836;22;20480;-86
2023/05/26 13:55:49;;;;;;;115.43;106.95;;;;;;;;;;6273370;22;20083;-81
2023/05/26 13:58:15;;;;;;;103.53;95.82;;;;;;;;;;6272699;22;20011;-81
2023/05/26 14:00:41;;;;;;;55.40;50.40;;;;;;;;;;6274345;22;20036;-84
2023/05/26 14:03:08;;;;;;;34.90;30.73;;;;;;;;;;6246916;22;20044;-84
2023/05/26 14:05:34;;;;;;;32.50;16.17;;;;;;;;;;6247046;22;20007;-84
2023/05/26 14:08:05;;;;;;;25.92;9.02;;;;;;;;;;6246262;22;20007;-84